Tiempo atmosférico en la estación meteorológica de Barco De Avila, Ávila (1012 m.)



Fecha
DESCASC
Temp. máxima en grados centígrados (hora)
DESCASC
Temp. mínima en grados centígrados (hora)
DESCASC
Temp. media en grados centígrados
DESCASC
Racha de viento máxima en m/sg (hora)
DESCASC
Velocidad máxima media en intervalos de 10 minutos(hora)
DESCASC
Precipitaciones diarias en mm
DESCASC
Precipitaciones de 00:00 a 06:00 en mm
DESCASC
Precipitaciones de 06:00 a 12:00 en mm
DESCASC
Precipitaciones de 12:00 a 18:00 en mm
DESCASC
Precipitaciones de 18:00 a 24:00 en mm
DESCASC
23-05-2018 22.8 (15:30) 7.5 (06:20) 15.1 8.33 (15:50) 5.28 (17:40) 0 0 0 0 0
22-05-2018 20.8 (15:00) 6.2 (05:00) 13.5 8.33 (15:30) 5.56 (15:40) 9.8 0 0 9.8 0
21-05-2018 18.5 (13:50) 4.8 (07:00) 11.7 8.61 (20:00) 5.83 (14:20) 0 0 0 0 0
20-05-2018 19.2 (12:30) 6 (00:00) 12.6 11.67 (13:20) 6.94 (13:20) 4 0 0 4 0
19-05-2018 20.1 (13:30) 5.6 (00:00) 12.9 8.61 (14:10) 5.28 (15:30) 15.2 0 0 12.2 3
18-05-2018 17.7 (13:00) 7.3 (00:00) 12.5 7.78 (15:50) 4.72 (13:30) 5 2.2 0.2 0.2 2.4
17-05-2018 21.5 (13:30) 6.5 (00:00) 14 11.94 (14:40) 7.78 (14:30) 2.4 0 0 1.2 1.2
16-05-2018 22.3 (17:30) 3.4 (00:00) 12.8 9.44 (18:20) 4.72 (18:00) 0 0 0 0 0
15-05-2018 19.7 (18:10) 1.4 (00:00) 10.6 9.17 (18:00) 4.72 (18:30) 0 0 0 0 0
14-05-2018 15.6 (19:30) 5.4 (00:00) 10.5 8.61 (20:10) 5 (20:10) 0 0 0 0 0
13-05-2018 12.9 (16:20) -1.6 (-00:0) 5.6 7.78 (18:20) 4.17 (18:20) 0 0 0 0 0
12-05-2018 13.7 (00:00) 6.3 (00:00) 10 9.72 (15:00) 6.11 (16:30) 0 0 0 0 0
11-05-2018 19.9 (16:10) 6.3 (06:50) 13.1 12.5 (12:00) 7.78 (15:30) 0 0 0 0 0
10-05-2018 20.2 (18:00) 9.7 (00:00) 15 7.22 (14:20) 3.89 (16:00) 0 0 0 0 0
09-05-2018 21.1 (17:00) 7.3 (00:00) 14.2 8.61 (19:00) 4.72 (17:10) 0 0 0 0 0
08-05-2018 22.9 (17:10) 8.8 (00:00) 15.8 9.72 (18:30) 6.39 (18:30) 6 0.2 0 0 5.8
07-05-2018 20 (14:20) 6.4 (00:00) 13.2 7.78 (22:50) 4.44 (22:50) 3.8 0 0 0 3.8
06-05-2018 20.2 (17:30) 7 (00:00) 13.6 8.33 (15:10) 5.28 (15:00) 1.2 0 0 1.2 0
05-05-2018 19.9 (18:00) 1.9 (00:00) 10.9 6.94 (13:50) 3.61 (14:00) 0 0 0 0 0
04-05-2018 15.9 (17:00) -0.7 (-00:0) 7.6 8.89 (16:20) 4.72 (17:20) 0 0 0 0 0
03-05-2018 14.2 (17:00) 4.9 (00:00) 9.5 9.44 (15:30) 5 (16:00) 0 0 0 0 0
02-05-2018 14.1 (16:30) -0.2 (00:00) 7 7.5 (14:50) 3.61 (16:50) 0 0 0 0 0
01-05-2018 12.2 (19:00) 0.9 (07:50) 6.5 9.44 (15:20) 3.89 (16:10) 0 0 0 0 0
30-04-2018 9.2 (16:20) -1.6 (-00:0) 3.8 7.78 (14:00) 4.72 (14:10) 2.2 0 0 0 2.2
29-04-2018 7.9 (17:00) 1.9 (00:00) 4.9 11.39 (14:40) 6.94 (13:50) 5.2 1.6 0.2 3 0.4
28-04-2018 11.7 (16:30) 3.6 (00:00) 7.6 11.39 (15:50) 7.22 (16:10) 0 0 0 0 0

Gráficas

Temp. máximas Temp. mínimas Temp. medias Precipitaciones Rachas de viento máximas Velocidades máximas media en intervalos de 10 minutos

Datos horarios

Fecha y hora oficial Temperatura (ºC) Velocidad del viento (km/h) Dirección del viento Racha (km/h) Dirección de racha Precipitación (mm) Presión (hPa) Tendencia (hPa) Humedad (%)
2018-05-27 23:00:00 12.1 0 Calma 5 Oeste 0 -- -- 92
2018-05-27 22:00:00 12.6 0 Calma 0 Calma 0 -- -- 90
2018-05-27 21:00:00 12.8 2 Sur 8 Sudoeste 0 -- -- 89
2018-05-27 20:00:00 13.2 6 Oeste 10 Oeste 0.4 -- -- 86
2018-05-27 19:00:00 13.4 0 Calma 10 Sudeste 0.6 -- -- 81
2018-05-27 18:00:00 14.4 8 Oeste 23 Oeste 2 -- -- 76
2018-05-27 17:00:00 17.5 7 Noroeste 14 Oeste 0 -- -- 63
2018-05-27 16:00:00 17.2 6 Sudeste 13 Oeste 0 -- -- 61
2018-05-27 15:00:00 15.4 12 Oeste 25 Oeste 0 -- -- 68
2018-05-27 14:00:00 17.9 9 Norte 21 Norte 0 -- -- 58
2018-05-27 13:00:00 18.1 10 Norte 26 Noroeste 0 -- -- 57
2018-05-27 12:00:00 18.6 8 Oeste 21 Oeste 0 -- -- 49
2018-05-27 11:00:00 17.5 5 Oeste 11 Sudoeste 0 -- -- 59
2018-05-27 10:00:00 12.2 5 Sudoeste 9 Sudoeste 0 -- -- 84
2018-05-27 09:00:00 9.6 0 Calma 14 Sudoeste 0 -- -- 91
2018-05-27 08:00:00 8.2 9 Sudoeste 17 Oeste 0 -- -- 91
2018-05-27 07:00:00 7.3 8 Sudoeste 14 Sudoeste 0 -- -- 94
2018-05-27 06:00:00 6.7 5 Sudoeste 13 Oeste 0 -- -- 93
2018-05-27 05:00:00 6.4 8 Sudoeste 14 Sudoeste 0 -- -- 94
2018-05-27 04:00:00 6.5 7 Sudoeste 15 Sudoeste 0 -- -- 92
2018-05-27 03:00:00 6.9 9 Sudoeste 16 Sudoeste 0 -- -- 91
2018-05-27 02:00:00 7.1 8 Sudoeste 13 Sudoeste 0 -- -- 91
2018-05-27 01:00:00 7.9 7 Sudoeste 12 Sudoeste 0 -- -- 90
2018-05-27 00:00:00 9.2 3 Sudoeste 9 Sudoeste 0 -- -- 86
2018-05-26 23:00:00 11.2 0 Calma -- -- 0 -- -- 81
2018-05-26 22:00:00 13.4 0 Calma 7 Norte 0 -- -- 74
2018-05-26 21:00:00 15.8 5 Norte 15 Oeste 0 -- -- 62
2018-05-26 20:00:00 16.6 11 Oeste 24 Sudoeste 0 -- -- 59
2018-05-26 19:00:00 16.3 12 Sudoeste 20 Sudoeste 0 -- -- 61
2018-05-26 18:00:00 16.1 13 Oeste 22 Oeste 0 -- -- 57
2018-05-26 17:00:00 17.7 13 Sudoeste 21 Sur 0 -- -- 55
2018-05-26 16:00:00 16.4 14 Sur 23 Oeste 0 -- -- 55
2018-05-26 15:00:00 16 14 Oeste 29 Sudoeste 0 -- -- 61
2018-05-26 14:00:00 16.7 12 Sudoeste 23 Sudoeste 0 -- -- 58
2018-05-26 13:00:00 16.1 14 Sudoeste 23 Sudoeste 0 -- -- 55
2018-05-26 12:00:00 15.7 13 Sudoeste 22 Sudoeste 0 -- -- 55
2018-05-26 11:00:00 14.5 6 Sudoeste 12 Oeste 0 -- -- 61
2018-05-26 10:00:00 11.9 0 Calma -- -- 0 -- -- 80
2018-05-26 09:00:00 8.3 0 Calma 11 Sudoeste 0 -- -- 91
2018-05-26 08:00:00 6.5 0 Calma 6 Oeste 0 -- -- 94
2018-05-26 07:00:00 6.7 0 Calma 9 Sudoeste 0 -- -- 95
2018-05-26 06:00:00 6.8 7 Sudoeste 12 Oeste 0 -- -- 95
2018-05-26 05:00:00 7.1 5 Sudoeste 8 Sudoeste 0 -- -- 95
2018-05-26 04:00:00 7.5 4 Sudoeste 9 Sudoeste 0 -- -- 95
2018-05-26 03:00:00 8 6 Sudoeste 9 Sudoeste 0 -- -- 94
2018-05-26 02:00:00 8.6 3 Sur 9 Oeste 0 -- -- 95
2018-05-26 01:00:00 9.2 4 Sudoeste 6 Sudoeste 0 -- -- 93
2018-05-26 00:00:00 9.6 5 Sur 10 Sudoeste 0 -- -- 94
2018-05-25 23:00:00 9.9 4 Sur 11 Oeste 0 -- -- 93
2018-05-25 22:00:00 10.5 5 Sudoeste 8 Sudoeste 0 -- -- 92
2018-05-25 21:00:00 11 0 Calma 11 Sudoeste 0 -- -- 86
2018-05-25 20:00:00 11.2 9 Sudoeste 13 Sudoeste 1.2 -- -- 87
2018-05-25 19:00:00 11.8 5 Este 11 Norte 0.2 -- -- 84
2018-05-25 18:00:00 12.1 10 Norte 23 Norte 1.2 -- -- 81
2018-05-25 17:00:00 13.6 8 Sudoeste 13 Sudoeste 0 -- -- 71
2018-05-25 16:00:00 10.6 3 Sur 18 Sudoeste 1.6 -- -- 86
2018-05-25 15:00:00 9.9 13 Sudoeste 34 Sudoeste 0.2 -- -- 89
2018-05-25 14:00:00 13 21 Sudoeste 34 Sudoeste 0 -- -- 75
2018-05-25 13:00:00 12.9 0 Calma 17 Sudeste 1.2 -- -- 79
2018-05-25 12:00:00 13.4 12 Sudeste 21 Este 0 -- -- 70
2018-05-25 11:00:00 14 0 Calma 14 Norte 0 -- -- 74
2018-05-25 10:00:00 11.8 7 Norte 18 Oeste 0 -- -- 85
2018-05-25 09:00:00 10 8 Sudoeste 13 Oeste 0 -- -- 91
2018-05-25 08:00:00 8.7 8 Oeste 13 Sudoeste 0 -- -- 92
2018-05-25 07:00:00 8.8 7 Sudoeste 15 Sudoeste 0 -- -- 91
2018-05-25 06:00:00 9.1 8 Sudoeste 14 Sudoeste 0 -- -- 94
2018-05-25 05:00:00 9.3 4 Sur 10 Sudoeste 0 -- -- 94
2018-05-25 04:00:00 10.3 6 Sudoeste 9 Sudoeste 0 -- -- 92
2018-05-25 03:00:00 11.1 6 Sudoeste 23 Oeste 0 -- -- 90
2018-05-25 02:00:00 11.3 13 Oeste 19 Oeste 0 -- -- 89
2018-05-25 01:00:00 12.1 5 Sudoeste 17 Noroeste 0 -- -- 87
2018-05-25 00:00:00 12.3 6 Oeste 20 Oeste 0 -- -- 86
2018-05-24 23:00:00 12.4 12 Oeste 28 Sudoeste 0.4 -- -- 90
2018-05-24 22:00:00 13.4 15 Sudoeste 37 Sudoeste 2 -- -- 88
2018-05-24 21:00:00 14.2 11 Sudoeste 21 Sudoeste 0 -- -- 84
2018-05-24 20:00:00 16 4 Sur 12 Oeste 0 -- -- 83
2018-05-24 19:00:00 17 9 Oeste 18 Sudoeste 0.2 -- -- 78
2018-05-24 18:00:00 18.6 8 Norte 16 Norte 0 -- -- 71
2018-05-24 17:00:00 17.9 4 Norte 14 Norte 0 -- -- 76
2018-05-24 16:00:00 17.3 6 Norte 20 Norte 0.6 -- -- 78
2018-05-24 15:00:00 16.4 12 Norte 22 Nordeste 0.8 -- -- 79
2018-05-24 14:00:00 17.6 12 Norte 24 Norte 0 -- -- 67
2018-05-24 13:00:00 17.2 6 Nordeste 27 Norte 0 -- -- 67
2018-05-24 12:00:00 15.9 9 Norte 18 Nordeste 0 -- -- 77
2018-05-24 11:00:00 14.4 8 Sudoeste 17 Sudoeste 0 -- -- 78
2018-05-24 10:00:00 13.7 7 Sudoeste 14 Sudoeste 0 -- -- 80
2018-05-24 09:00:00 13.1 8 Oeste 13 Sudoeste 0 -- -- 81
2018-05-24 08:00:00 11.6 10 Sur 18 Sudoeste 0 -- -- 86
2018-05-24 07:00:00 10.4 8 Sudoeste 13 Oeste 0 -- -- 89
2018-05-24 06:00:00 10.6 8 Sudoeste 13 Sudoeste 0 -- -- 87
2018-05-24 05:00:00 10.7 4 Oeste 13 Sudoeste 0 -- -- 86
2018-05-24 04:00:00 10.2 8 Sudoeste 13 Sudoeste 0 -- -- 88
2018-05-24 03:00:00 11 7 Oeste 11 Sudoeste 0 -- -- 86
2018-05-24 02:00:00 12.7 6 Oeste 8 Sudoeste 0 -- -- 82
2018-05-24 01:00:00 14.2 3 Oeste 8 Sudeste 0 -- -- 76
2018-05-24 00:00:00 15.6 0 Calma 15 Sudoeste 0 -- -- 68
2018-05-23 23:00:00 16.2 12 Sudoeste 19 Oeste 0 -- -- 67
2018-05-23 22:00:00 17.2 10 Oeste 17 Sudoeste 0 -- -- 62
2018-05-23 21:00:00 18.5 9 Sudoeste 28 Sudoeste 0 -- -- 60
2018-05-23 20:00:00 19.2 15 Sudoeste 24 Sudoeste 0 -- -- 59
2018-05-23 19:00:00 20.4 14 Sur 29 Sur 0 -- -- 52
2018-05-23 18:00:00 21.3 19 Sur 28 Sur 0 -- -- 46
2018-05-23 17:00:00 22.2 18 Sur 28 Sur 0 -- -- 40
2018-05-23 16:00:00 22.5 17 Sur 30 Sudoeste 0 -- -- 39
2018-05-23 15:00:00 22.3 15 Sur 27 Sur 0 -- -- 42
2018-05-23 14:00:00 20.7 14 Sur 27 Sudoeste 0 -- -- 51
2018-05-23 13:00:00 20.5 14 Sur 25 Sur 0 -- -- 51
2018-05-23 12:00:00 18.9 0 Calma 7 Nordeste 0 -- -- 62
2018-05-23 11:00:00 16.5 0 Calma 0 Calma 0 -- -- 77
2018-05-23 10:00:00 13.7 0 Calma 7 Sudoeste 0 -- -- 80
2018-05-23 09:00:00 10.6 6 Sudoeste 12 Sudoeste 0 -- -- 91
2018-05-23 08:00:00 9 8 Sudoeste 14 Oeste 0 -- -- 94
2018-05-23 07:00:00 7.9 4 Sudoeste 14 Sudoeste 0 -- -- 95
2018-05-23 06:00:00 7.6 6 Oeste 17 Sudoeste 0 -- -- 94
2018-05-23 05:00:00 7.7 12 Sudoeste 16 Sudoeste 0 -- -- 93
2018-05-23 04:00:00 7.9 8 Sudoeste 13 Sudoeste 0 -- -- 93
2018-05-23 03:00:00 8.6 8 Sudoeste 12 Oeste 0 -- -- 93
2018-05-23 02:00:00 9.1 8 Oeste 13 Sudoeste 0 -- -- 92
2018-05-23 01:00:00 10.3 6 Oeste 15 Sudoeste 0 -- -- 90
2018-05-23 00:00:00 11.6 8 Sudoeste 13 Sudoeste 0 -- -- 89
2018-05-22 23:00:00 12.8 9 Sudoeste 12 Sudoeste 0 -- -- 89
2018-05-22 22:00:00 14.9 0 Calma -- -- 0 -- -- 85
2018-05-22 21:00:00 16 0 Calma 4 Este 0 -- -- 77
2018-05-22 20:00:00 16.6 0 Calma 5 Oeste 0 -- -- 73
2018-05-22 19:00:00 16.4 0 Calma 6 Este 0 -- -- 74
2018-05-22 18:00:00 16.3 5 Este 12 Nordeste 0.2 -- -- 78
2018-05-22 17:00:00 15.1 6 Noroeste 13 Noroeste 2.4 -- -- 82
2018-05-22 16:00:00 14.8 9 Este 30 Este 7.2 -- -- 84
2018-05-22 15:00:00 20.8 6 Norte 19 Noroeste 0 -- -- 51
2018-05-22 14:00:00 18.9 5 Norte 21 Sudoeste 0 -- -- 59
2018-05-22 13:00:00 20.5 9 Oeste 19 Oeste 0 -- -- 54
2018-05-22 12:00:00 19.6 4 Sudeste 9 Sur 0 -- -- 58
2018-05-22 11:00:00 17.5 3 Sudeste 9 Sudoeste 0 -- -- 63
2018-05-22 10:00:00 14.4 4 Sudoeste 14 Sudoeste 0 -- -- 74
2018-05-22 09:00:00 10.6 9 Sudoeste 17 Sudoeste 0 -- -- 85
2018-05-22 08:00:00 7.3 8 Sudoeste 17 Sudoeste 0 -- -- 92
2018-05-22 07:00:00 6.3 11 Sudoeste 15 Sudoeste 0 -- -- 94
2018-05-22 06:00:00 6.3 8 Oeste 14 Oeste 0 -- -- 94
2018-05-22 05:00:00 6.2 10 Sudoeste 15 Sudoeste 0 -- -- 94
2018-05-22 04:00:00 7.2 4 Sudoeste 10 Sudoeste 0 -- -- 92
2018-05-22 03:00:00 8.4 3 Oeste 17 Sudoeste 0 -- -- 91
2018-05-22 02:00:00 8.8 9 Sudoeste 15 Sudoeste 0 -- -- 91
2018-05-22 01:00:00 9.6 8 Oeste 13 Sudoeste 0 -- -- 92
2018-05-22 00:00:00 10.3 8 Sudoeste 15 Sudoeste 0 -- -- 88
2018-05-21 23:00:00 10.9 7 Sudoeste 12 Sudoeste 0 -- -- 88
2018-05-21 22:00:00 12.1 7 Sur 19 Sudeste 0 -- -- 81
2018-05-21 21:00:00 13.4 13 Sur 30 Sudeste 0 -- -- 76
2018-05-21 20:00:00 14.8 18 Sudeste 31 Sudeste 0 -- -- 67
2018-05-21 19:00:00 17.9 9 Oeste 15 Oeste 0 -- -- 59
2018-05-21 18:00:00 17.1 4 Nordeste 15 Norte 0 -- -- 62
2018-05-21 17:00:00 16.2 9 Nordeste 23 Este 0 -- -- 67
2018-05-21 16:00:00 15.9 12 Nordeste 30 Nordeste 0 -- -- 65
2018-05-21 15:00:00 17 17 Sudoeste 29 Sudoeste 0 -- -- 61
2018-05-21 14:00:00 18.5 10 Sudoeste 23 Sudoeste 0 -- -- 55
2018-05-21 13:00:00 16.7 15 Sudoeste 23 Sudoeste 0 -- -- 60
2018-05-21 12:00:00 16.2 12 Sudoeste 18 Sudoeste 0 -- -- 67
2018-05-21 11:00:00 13.4 7 Sudoeste 11 Sudoeste 0 -- -- 72
2018-05-21 10:00:00 10.8 7 Sudoeste 13 Sudoeste 0 -- -- 85
2018-05-21 09:00:00 7.4 8 Sudoeste 15 Oeste 0 -- -- 92
2018-05-21 08:00:00 5.5 11 Sudoeste 15 Sudoeste 0 -- -- 95
2018-05-21 07:00:00 4.8 5 Sudoeste 12 Sudoeste 0 -- -- 94
2018-05-21 06:00:00 5.1 10 Sudoeste 15 Sudoeste 0 -- -- 94
2018-05-21 05:00:00 5.5 5 Sudoeste 13 Sudoeste 0 -- -- 93
2018-05-21 04:00:00 5.9 8 Sudoeste 12 Sudoeste 0 -- -- 93
2018-05-21 03:00:00 6.6 7 Sudoeste 10 Sudoeste 0 -- -- 92
2018-05-21 02:00:00 7.8 4 Sudoeste 14 Sudoeste 0 -- -- 90
2018-05-21 01:00:00 8.6 8 Sudoeste 14 Oeste 0 -- -- 89
2018-05-21 00:00:00 9.2 8 Sudoeste 17 Sudoeste 0 -- -- 87
2018-05-20 23:00:00 9.8 6 Sudoeste 12 Sudoeste 0 -- -- 86
2018-05-20 22:00:00 12 5 Sudoeste 17 Oeste 0 -- -- 77
2018-05-20 21:00:00 14 10 Oeste 26 Sudoeste 0 -- -- 69
2018-05-20 20:00:00 15.9 15 Oeste 26 Sudoeste 0 -- -- 63
2018-05-20 19:00:00 16.9 2 Sur 9 Sur 0 -- -- 53
2018-05-20 18:00:00 17.2 3 Oeste 11 Norte 0 -- -- 59
2018-05-20 17:00:00 16.3 5 Sur 13 Este 0 -- -- 67
2018-05-20 16:00:00 13.2 8 Sudoeste 22 Noroeste 0.6 -- -- 82
2018-05-20 15:00:00 10.7 4 Sudoeste 23 Oeste 3.4 -- -- 87
2018-05-20 14:00:00 12.4 4 Sudoeste 42 Sudoeste 0 -- -- 80
2018-05-20 13:00:00 16 20 Oeste 36 Sudoeste 0 -- -- 64
2018-05-20 12:00:00 18.2 5 Norte 12 Oeste 0 -- -- 54
2018-05-20 11:00:00 16.4 8 Sudoeste 23 Sur 0 -- -- 66
2018-05-20 10:00:00 13.7 11 Sur 21 Sudoeste 0 -- -- 79
2018-05-20 09:00:00 10.1 11 Sudoeste 23 Sudoeste 0 -- -- 88
2018-05-20 08:00:00 7.6 12 Oeste 15 Oeste 0 -- -- 94
2018-05-20 07:00:00 6.5 12 Sudoeste 17 Sudoeste 0 -- -- 95
2018-05-20 06:00:00 6.4 6 Sudoeste 19 Sudoeste 0 -- -- 95
2018-05-20 05:00:00 6.3 12 Sudoeste 15 Sudoeste 0 -- -- 95
2018-05-20 04:00:00 6.8 8 Sudoeste 14 Sudoeste 0 -- -- 95
2018-05-20 03:00:00 7.3 9 Sudoeste 15 Sudoeste 0 -- -- 94
2018-05-20 02:00:00 7.7 8 Sudoeste 13 Sudoeste 0 -- -- 93
2018-05-20 01:00:00 8.7 8 Sudoeste 17 Sudoeste 0 -- -- 93
2018-05-20 00:00:00 9.3 7 Sudoeste 16 Sudoeste 0 -- -- 91
2018-05-19 23:00:00 10.8 10 Sur 18 Sur 0 -- -- 87
2018-05-19 22:00:00 12.4 12 Sudoeste 27 Sur 0.8 -- -- 86
2018-05-19 21:00:00 14.1 8 Norte 23 Noroeste 2.2 -- -- 82
2018-05-19 20:00:00 16.2 4 Oeste 10 Oeste 0 -- -- 69
2018-05-19 19:00:00 15.7 7 Sur 14 Sudoeste 0 -- -- 69
2018-05-19 18:00:00 15.6 11 Sudoeste 18 Sudoeste 0 -- -- 74
2018-05-19 17:00:00 12.5 8 Sudoeste 24 Oeste 1 -- -- 89
2018-05-19 16:00:00 11.6 15 Oeste 28 Sudoeste 1.6 -- -- 88
2018-05-19 15:00:00 12.4 5 Sur 31 Este 9.6 -- -- 83
2018-05-19 14:00:00 16.6 18 Sur 28 Sur 0 -- -- 58
2018-05-19 13:00:00 18.2 7 Este 19 Norte 0 -- -- 60
2018-05-19 12:00:00 17.9 10 Noroeste 19 Nordeste 0 -- -- 58
2018-05-19 11:00:00 16.4 3 Noroeste 9 Norte 0 -- -- 64
2018-05-19 10:00:00 14.8 2 Oeste 9 Sudeste 0 -- -- 69
2018-05-19 09:00:00 11.2 0 Calma 13 Sudoeste 0 -- -- 84
2018-05-19 08:00:00 8.5 11 Sudoeste 22 Sudoeste 0 -- -- 89
2018-05-19 07:00:00 7.4 14 Sudoeste 22 Sudoeste 0 -- -- 94
2018-05-19 06:00:00 6.3 8 Sudoeste 15 Sudoeste 0 -- -- 95
2018-05-19 05:00:00 5.6 6 Sudoeste 12 Sudoeste 0 -- -- 94
2018-05-19 04:00:00 6.2 8 Sudoeste 18 Sudoeste 0 -- -- 93
2018-05-19 03:00:00 6.6 11 Sudoeste 19 Oeste 0 -- -- 95
2018-05-19 02:00:00 6.8 8 Oeste 13 Oeste 0 -- -- 93
2018-05-19 01:00:00 7.3 6 Oeste 12 Oeste 0 -- -- 93
2018-05-19 00:00:00 8 7 Oeste 14 Sudoeste 0 -- -- 92
2018-05-18 23:00:00 8.8 8 Oeste 13 Sudoeste 0 -- -- 93
2018-05-18 22:00:00 9.8 7 Sudoeste 9 Sudoeste 0 -- -- 91
2018-05-18 21:00:00 11.5 2 Oeste 11 Oeste 0 -- -- 85
2018-05-18 20:00:00 12.5 6 Sur 19 Sur 2.4 -- -- 81
2018-05-18 19:00:00 17.2 4 Nordeste 13 Nordeste 0 -- -- 55
2018-05-18 18:00:00 16.1 4 Este 18 Este 0 -- -- 63
2018-05-18 17:00:00 15.4 8 Norte 21 Norte 0 -- -- 63
2018-05-18 16:00:00 15.1 14 Norte 28 Norte 0.2 -- -- 63
2018-05-18 15:00:00 15.6 13 Noroeste 24 Oeste 0 -- -- 59
2018-05-18 14:00:00 16.1 15 Oeste 27 Oeste 0 -- -- 64
2018-05-18 13:00:00 17.7 5 Este 19 Sudeste 0 -- -- 52
2018-05-18 12:00:00 15.3 3 Sudoeste 17 Sudoeste 0 -- -- 64
2018-05-18 11:00:00 16.1 5 Oeste 11 Sudoeste 0 -- -- 62
2018-05-18 10:00:00 13.1 4 Sudoeste 18 Sudoeste 0 -- -- 74
2018-05-18 09:00:00 9.8 11 Sudoeste 20 Sudoeste 0 -- -- 84
2018-05-18 08:00:00 7.3 12 Sudoeste 20 Sudoeste 0 -- -- 92
2018-05-18 07:00:00 7.4 9 Sudoeste 15 Oeste 0.2 -- -- 92
2018-05-18 06:00:00 8.2 10 Oeste 16 Oeste 0 -- -- 88
2018-05-18 05:00:00 8.9 8 Sudoeste 21 Sudoeste 0 -- -- 90
2018-05-18 04:00:00 9.3 7 Oeste 15 Sudoeste 0 -- -- 93
2018-05-18 03:00:00 10.1 13 Sur 23 Sudeste 0 -- -- 92
2018-05-18 02:00:00 10.3 5 Este 8 Sur 0.8 -- -- 93
2018-05-18 01:00:00 10.8 0 Calma 16 Nordeste 1.4 -- -- 91
2018-05-18 00:00:00 11 12 Nordeste 20 Norte 0.2 -- -- 90
2018-05-17 23:00:00 11 3 Sudoeste 12 Oeste 0 -- -- 89
2018-05-17 22:00:00 11.7 7 Oeste 12 Oeste 0 -- -- 85
2018-05-17 21:00:00 12.4 5 Sudoeste 16 Oeste 0.8 -- -- 81
2018-05-17 20:00:00 13.3 10 Sudoeste 17 Sudoeste 0.2 -- -- 82
2018-05-17 19:00:00 14.5 8 Sur 22 Sudoeste 0 -- -- 69
2018-05-17 18:00:00 15 13 Sur 23 Sur 0 -- -- 73
2018-05-17 17:00:00 13.2 12 Sudeste 22 Sudoeste 0.4 -- -- 78
2018-05-17 16:00:00 13.8 13 Sudoeste 36 Sur 0.8 -- -- 70
2018-05-17 15:00:00 14.8 24 Sur 43 Sur 0 -- -- 64
2018-05-17 14:00:00 19.1 10 Oeste 23 Oeste 0 -- -- 48
2018-05-17 13:00:00 20.9 11 Norte 22 Noroeste 0 -- -- 41
2018-05-17 12:00:00 19.9 4 Sudeste 9 Nordeste 0 -- -- 43
2018-05-17 11:00:00 19.6 2 Sudoeste 19 Sur 0 -- -- 43
2018-05-17 10:00:00 16.8 8 Sudoeste 17 Sur 0 -- -- 54
2018-05-17 09:00:00 12.4 10 Sudoeste 25 Sudoeste 0 -- -- 64
2018-05-17 08:00:00 9.4 15 Sudoeste 24 Sudoeste 0 -- -- 70
2018-05-17 07:00:00 7.6 14 Sudoeste 28 Sur 0 -- -- 77
2018-05-17 06:00:00 6.7 17 Sudoeste 27 Sudoeste 0 -- -- 84
2018-05-17 05:00:00 7.8 10 Sudoeste 19 Sudoeste 0 -- -- 80
2018-05-17 04:00:00 7 12 Sudoeste 16 Sudoeste 0 -- -- 85
2018-05-17 03:00:00 7.9 11 Sudoeste 15 Sudoeste 0 -- -- 82
2018-05-17 02:00:00 8.7 6 Oeste 12 Sudoeste 0 -- -- 79
2018-05-17 01:00:00 9.7 6 Oeste 10 Sudoeste 0 -- -- 79
2018-05-17 00:00:00 11.1 6 Sudoeste 10 Oeste 0 -- -- 73
2018-05-16 23:00:00 13.4 8 Sudoeste 15 Sudoeste 0 -- -- 64
2018-05-16 22:00:00 15.4 3 Sur 11 Sur 0 -- -- 54
2018-05-16 21:00:00 17.3 8 Sur 15 Sur 0 -- -- 50
2018-05-16 20:00:00 18.6 11 Sur 31 Este 0 -- -- 48
2018-05-16 19:00:00 21.6 12 Este 34 Noroeste 0 -- -- 43
2018-05-16 18:00:00 21.9 17 Noroeste 32 Noroeste 0 -- -- 39
2018-05-16 17:00:00 21.6 16 Noroeste 31 Noroeste 0 -- -- 42
2018-05-16 16:00:00 21 15 Noroeste 32 Noroeste 0 -- -- 45
2018-05-16 15:00:00 20.2 16 Noroeste 29 Noroeste 0 -- -- 45
2018-05-16 14:00:00 19.6 13 Norte 27 Noroeste 0 -- -- 48
2018-05-16 13:00:00 19 11 Norte 28 Noroeste 0 -- -- 53
2018-05-16 12:00:00 17.6 10 Norte 21 Norte 0 -- -- 52
2018-05-16 11:00:00 15 10 Norte 17 Norte 0 -- -- 58
2018-05-16 10:00:00 12.4 2 Nordeste 7 Este 0 -- -- 67
2018-05-16 09:00:00 8.9 2 Este 6 Sudoeste 0 -- -- 76
2018-05-16 08:00:00 4.7 4 Oeste 8 Sudoeste 0 -- -- 89
2018-05-16 07:00:00 3.6 0 Calma 9 Sudoeste 0 -- -- 87
2018-05-16 06:00:00 5.4 5 Sudoeste 13 Oeste 0 -- -- 85
2018-05-16 05:00:00 5.8 8 Sudoeste 15 Sudoeste 0 -- -- 85
2018-05-16 04:00:00 6.8 10 Oeste 17 Sudoeste 0 -- -- 83
2018-05-16 03:00:00 7.7 5 Sudoeste 19 Sudoeste 0 -- -- 79
2018-05-16 02:00:00 7.7 8 Sudoeste 13 Oeste 0 -- -- 79
2018-05-16 01:00:00 8.3 7 Sudoeste 10 Sudoeste 0 -- -- 77
2018-05-16 00:00:00 9.9 5 Sudoeste 10 Sur 0 -- -- 71
2018-05-15 23:00:00 13.7 3 Nordeste 13 Este 0 -- -- 57
2018-05-15 22:00:00 15 7 Norte 23 Norte 0 -- -- 51
2018-05-15 21:00:00 17.2 10 Norte 25 Norte 0 -- -- 44
2018-05-15 20:00:00 18.6 13 Nordeste 28 Nordeste 0 -- -- 39
2018-05-15 19:00:00 19.2 15 Norte 30 Norte 0 -- -- 37
2018-05-15 18:00:00 19.5 17 Norte 33 Norte 0 -- -- 38
2018-05-15 17:00:00 19.6 13 Norte 30 Norte 0 -- -- 40
2018-05-15 16:00:00 19 12 Norte 28 Norte 0 -- -- 40
2018-05-15 15:00:00 18.5 15 Noroeste 28 Norte 0 -- -- 41
2018-05-15 14:00:00 17.4 12 Norte 27 Norte 0 -- -- 39
2018-05-15 13:00:00 16 12 Norte 23 Norte 0 -- -- 36
2018-05-15 12:00:00 14.9 9 Norte 21 Noroeste 0 -- -- 37
2018-05-15 11:00:00 13.3 8 Norte 15 Norte 0 -- -- 44
2018-05-15 10:00:00 10.5 3 Este 10 Sudoeste 0 -- -- 55
2018-05-15 09:00:00 6.5 8 Sudoeste 11 Sudoeste 0 -- -- 68
2018-05-15 08:00:00 2.7 7 Oeste 13 Sudoeste 0 -- -- 82
2018-05-15 07:00:00 1.5 6 Sudoeste 12 Sudoeste 0 -- -- 87
2018-05-15 06:00:00 2.5 4 Sudoeste 15 Sur 0 -- -- 82
2018-05-15 05:00:00 2.7 8 Oeste 12 Sudoeste 0 -- -- 87
2018-05-15 04:00:00 3.9 7 Sudoeste 14 Oeste 0 -- -- 83
2018-05-15 03:00:00 4.8 10 Sudoeste 21 Sur 0 -- -- 81
2018-05-15 02:00:00 4.7 10 Sudoeste 17 Sudoeste 0 -- -- 83
2018-05-15 01:00:00 5.2 8 Sudoeste 11 Sudoeste 0 -- -- 81
2018-05-15 00:00:00 6.6 4 Sudoeste 5 Sudoeste 0 -- -- 76
2018-05-14 23:00:00 8.9 0 Calma 9 Nordeste 0 -- -- 66
2018-05-14 22:00:00 11.4 4 Nordeste 17 Nordeste 0 -- -- 58
2018-05-14 21:00:00 13.5 6 Nordeste 31 Nordeste 0 -- -- 51
2018-05-14 20:00:00 14.8 15 Nordeste 28 Nordeste 0 -- -- 48
2018-05-14 19:00:00 14.5 8 Nordeste 23 Nordeste 0 -- -- 49
2018-05-14 18:00:00 14.2 10 Nordeste 22 Norte 0 -- -- 60
2018-05-14 17:00:00 13.8 9 Norte 21 Noroeste 0 -- -- 61
2018-05-14 16:00:00 13.7 8 Norte 18 Norte 0 -- -- 66
2018-05-14 15:00:00 13.2 7 Este 14 Este 0 -- -- 70
2018-05-14 14:00:00 10.5 6 Este 10 Nordeste 0 -- -- 77
2018-05-14 13:00:00 9.8 2 Nordeste 9 Norte 0 -- -- 78
2018-05-14 12:00:00 9.3 5 Este 12 Este 0 -- -- 80
2018-05-14 11:00:00 8.3 5 Nordeste 12 Norte 0 -- -- 82
2018-05-14 10:00:00 7.5 2 Norte 8 Nordeste 0 -- -- 83
2018-05-14 09:00:00 6.9 0 Calma 6 Sudeste 0 -- -- 83
2018-05-14 08:00:00 6.3 3 Este 6 Nordeste 0 -- -- 86
2018-05-14 07:00:00 6.2 3 Nordeste 9 Nordeste 0 -- -- 86
2018-05-14 06:00:00 6.3 6 Nordeste 17 Norte 0 -- -- 84
2018-05-14 05:00:00 5.7 0 Calma -- -- 0 -- -- 85
2018-05-14 04:00:00 6.2 0 Calma 8 Este 0 -- -- 81
2018-05-14 03:00:00 6.1 4 Este 11 Norte 0 -- -- 81
2018-05-14 02:00:00 7.2 9 Norte 20 Noroeste 0 -- -- 74
2018-05-14 01:00:00 7.8 9 Norte 17 Noroeste 0 -- -- 72
2018-05-11 20:00:00 -- -- -- -- -- -- -- -- --
2018-05-11 19:00:00 18.2 24 Sudoeste 36 Sudoeste 0 -- -- 52
2018-05-11 18:00:00 18.4 21 Sudoeste 38 Sudoeste 0 -- -- 55
2018-05-11 17:00:00 19.7 23 Oeste 40 Oeste 0 -- -- 54
2018-05-11 16:00:00 19.6 22 Oeste 40 Sudoeste 0 -- -- 58
2018-05-11 15:00:00 18.8 24 Oeste 38 Oeste 0 -- -- 59
2018-05-11 14:00:00 18.8 23 Oeste 37 Sudoeste 0 -- -- 59
2018-05-11 13:00:00 17.8 25 Sudoeste 40 Oeste 0 -- -- 62
2018-05-11 12:00:00 17.8 25 Sudoeste 45 Oeste 0 -- -- 63
2018-05-11 11:00:00 16.6 23 Sudoeste 34 Sudoeste 0 -- -- 68
2018-05-11 10:00:00 15.4 22 Sudoeste 32 Sudoeste 0 -- -- 75
2018-05-11 09:00:00 10.3 2 Noroeste 9 Sudoeste 0 -- -- 84
2018-05-11 08:00:00 7.2 2 Sudoeste 12 Sudoeste 0 -- -- 89
2018-05-11 07:00:00 6.4 0 Calma 12 Oeste 0 -- -- 92
2018-05-11 06:00:00 7 6 Sudoeste 15 Oeste 0 -- -- 90
2018-05-11 05:00:00 7.5 12 Sudoeste 17 Sudoeste 0 -- -- 89
2018-05-11 04:00:00 8.4 9 Sudoeste 20 Sudoeste 0 -- -- 85
2018-05-11 03:00:00 8.3 7 Oeste 14 Sudoeste 0 -- -- 87
2018-05-11 02:00:00 9.3 9 Sudoeste 13 Sudoeste 0 -- -- 84
2018-05-11 01:00:00 10 3 Sudoeste 9 Oeste 0 -- -- 82
2018-05-11 00:00:00 11.3 6 Sudoeste 9 Sudoeste 0 -- -- 79
2018-05-10 23:00:00 13.4 2 Sudoeste 6 Este 0 -- -- 71
2018-05-10 22:00:00 15.9 3 Sudeste 13 Norte 0 -- -- 60
2018-05-10 21:00:00 18 8 Norte 16 Norte 0 -- -- 51
2018-05-10 20:00:00 19.4 9 Noroeste 20 Noroeste 0 -- -- 47
2018-05-10 19:00:00 19.9 10 Norte 24 Norte 0 -- -- 47
2018-05-10 18:00:00 20.2 11 Noroeste 25 Norte 0 -- -- 50
2018-05-10 17:00:00 20 12 Norte 25 Norte 0 -- -- 53
2018-05-10 16:00:00 19.3 14 Norte 25 Norte 0 -- -- 54
2018-05-10 15:00:00 18.9 10 Noroeste 26 Noroeste 0 -- -- 61
2018-05-10 14:00:00 18 13 Norte 24 Norte 0 -- -- 61
2018-05-10 13:00:00 17.3 13 Norte 23 Norte 0 -- -- 65
2018-05-10 12:00:00 16.5 3 Norte 11 Este 0 -- -- 71
2018-05-10 11:00:00 14.1 3 Noroeste 9 Nordeste 0 -- -- 74
2018-05-10 10:00:00 12.2 3 Nordeste 7 Norte 0 -- -- 78
2018-05-10 09:00:00 10.8 3 Noroeste 14 Noroeste 0 -- -- 82
2018-05-10 08:00:00 9.9 7 Norte 18 Noroeste 0 -- -- 84
2018-05-10 07:00:00 9.7 6 Norte 14 Norte 0 -- -- 88
2018-05-10 06:00:00 10.4 0 Calma 13 Nordeste 0 -- -- 85
2018-05-10 05:00:00 10.7 8 Norte 17 Norte 0 -- -- 85
2018-05-10 04:00:00 11 8 Norte 14 Norte 0 -- -- 85
2018-05-10 03:00:00 11.9 3 Nordeste 7 Norte 0 -- -- 81
2018-05-10 02:00:00 12.7 5 Norte 14 Norte 0 -- -- 80
2018-05-10 01:00:00 13.3 5 Norte 14 Nordeste 0 -- -- 78
2018-05-10 00:00:00 13.7 6 Nordeste 22 Nordeste 0 -- -- 80
2018-05-09 23:00:00 14.2 9 Norte 19 Norte 0 -- -- 77
2018-05-09 22:00:00 15.9 6 Norte 28 Norte 0 -- -- 75
2018-05-09 21:00:00 17 11 Norte 24 Norte 0 -- -- 65
2018-05-09 20:00:00 18.4 14 Norte 25 Norte 0 -- -- 54
2018-05-09 19:00:00 19.6 13 Norte 31 Norte 0 -- -- 53
2018-05-09 18:00:00 20.5 15 Norte 29 Noroeste 0 -- -- 50
2018-05-09 17:00:00 21.1 14 Noroeste 28 Norte 0 -- -- 47
2018-05-09 16:00:00 20 11 Norte 27 Noroeste 0 -- -- 50
2018-05-09 15:00:00 19.4 10 Norte 24 Norte 0 -- -- 59
2018-05-09 14:00:00 19 10 Norte 20 Norte 0 -- -- 66
2018-05-09 13:00:00 19.8 11 Norte 21 Norte 0 -- -- 63
2018-05-09 12:00:00 18.3 9 Norte 16 Norte 0 -- -- 66
2018-05-09 11:00:00 15.9 9 Nordeste 17 Nordeste 0 -- -- 75
2018-05-09 10:00:00 13.5 0 Calma 12 Sudoeste 0 -- -- 81
2018-05-09 09:00:00 10.3 9 Sudoeste 12 Sudoeste 0 -- -- 91
2018-05-09 08:00:00 7.8 4 Sudoeste 21 Sudoeste 0 -- -- 95
2018-05-09 07:00:00 7.7 12 Sudoeste 20 Sudoeste 0 -- -- 96
2018-05-09 06:00:00 7.9 3 Sudeste 12 Sudoeste 0 -- -- 94
2018-05-09 05:00:00 8.8 9 Sudoeste 16 Sur 0 -- -- 93
2018-05-09 04:00:00 9.7 12 Sudoeste 17 Sudoeste 0 -- -- 94
2018-05-09 03:00:00 10.3 9 Sudoeste 15 Sudoeste 0 -- -- 92
2018-05-09 02:00:00 11.5 11 Sudoeste 19 Sur 0 -- -- 88
2018-05-09 01:00:00 11.7 10 Sudoeste 22 Sudeste 0 -- -- 89
2018-05-09 00:00:00 12.6 14 Sur 22 Sur 0 -- -- 85
2018-05-08 23:00:00 13 8 Sudeste 17 Este 5 -- -- 88
2018-05-08 22:00:00 13.7 3 Sudoeste 9 Sudoeste 0 -- -- 87
2018-05-08 21:00:00 14.4 6 Sudoeste 11 Sudoeste 0 -- -- 81
2018-05-08 20:00:00 16 7 Sudoeste 19 Oeste 0 -- -- 76
2018-05-08 19:00:00 17.3 14 Sudoeste 35 Sudoeste 0.8 -- -- 77
2018-05-08 18:00:00 21.7 5 Norte 26 Norte 0 -- -- 52
2018-05-08 17:00:00 22.7 11 Norte 24 Noroeste 0 -- -- 47
2018-05-08 16:00:00 22.2 10 Noroeste 23 Norte 0 -- -- 47
2018-05-08 15:00:00 21.7 9 Noroeste 19 Noroeste 0 -- -- 49
2018-05-08 14:00:00 21.2 10 Norte 19 Norte 0 -- -- 51
2018-05-08 13:00:00 20.3 6 Norte 14 Norte 0 -- -- 59
2018-05-08 12:00:00 18.4 3 Sudeste 9 Oeste 0 -- -- 64
2018-05-08 11:00:00 15.3 6 Sudoeste 11 Sudoeste 0 -- -- 81
2018-05-08 10:00:00 11.8 8 Sudoeste 16 Sudoeste 0 -- -- 89
2018-05-08 09:00:00 9.5 6 Sudoeste 11 Sudoeste 0 -- -- 96
2018-05-08 08:00:00 9 7 Oeste 10 Sur 0 -- -- 94
2018-05-08 07:00:00 9.2 0 Calma 13 Sudoeste 0 -- -- 93
2018-05-08 06:00:00 9.8 8 Sudoeste 13 Sudoeste 0 -- -- 94
2018-05-08 05:00:00 9.9 6 Sudoeste 14 Sudoeste 0 -- -- 94
2018-05-08 04:00:00 9.6 4 Sudoeste 12 Sudoeste 0 -- -- 95
2018-05-08 03:00:00 9.8 7 Sudoeste 13 Sudoeste 0 -- -- 93
2018-05-08 02:00:00 10.9 5 Sudoeste 14 Oeste 0 -- -- 91
2018-05-08 01:00:00 11.6 12 Oeste 23 Oeste 0.2 -- -- 91
2018-05-08 00:00:00 12.5 7 Sudoeste 23 Nordeste 3.8 -- -- 89
2018-05-07 23:00:00 14.1 12 Sudeste 28 Sudeste 0 -- -- 75
2018-05-07 22:00:00 14.2 7 Sudoeste 14 Oeste 0 -- -- 80
2018-05-07 21:00:00 15.6 3 Oeste 19 Oeste 0 -- -- 74
2018-05-07 20:00:00 16 9 Oeste 18 Oeste 0 -- -- 72
2018-05-07 19:00:00 16.2 7 Oeste 13 Sur 0 -- -- 79
2018-05-07 18:00:00 16.1 5 Sudoeste 17 Sur 0 -- -- 76
2018-05-07 17:00:00 16.6 9 Sur 16 Sudoeste 0 -- -- 72
2018-05-07 16:00:00 14.8 10 Sur 23 Sur 0 -- -- 80
2018-05-07 15:00:00 18.1 13 Norte 25 Norte 0 -- -- 55
2018-05-07 14:00:00 19.4 3 Este 7 Sudoeste 0 -- -- 53
2018-05-07 13:00:00 18 5 Sur 8 Sudeste 0 -- -- 58
2018-05-07 12:00:00 16.2 0 Calma 6 Nordeste 0 -- -- 68
2018-05-07 11:00:00 14.1 4 Nordeste 7 Nordeste 0 -- -- 72
2018-05-07 10:00:00 12.4 4 Sur 13 Sudoeste 0 -- -- 85
2018-05-07 09:00:00 8.8 7 Sudoeste 17 Sudoeste 0 -- -- 90
2018-05-07 08:00:00 6.6 12 Sudoeste 19 Sudoeste 0 -- -- 93
2018-05-07 07:00:00 6.8 10 Sudoeste 20 Sudoeste 0 -- -- 93
2018-05-07 06:00:00 6.6 11 Sudoeste 17 Sudoeste 0 -- -- 94
2018-05-07 05:00:00 7.5 6 Sudoeste 19 Sudoeste 0 -- -- 93
2018-05-07 04:00:00 7.6 8 Sudoeste 13 Sudoeste 0 -- -- 92
2018-05-07 03:00:00 7.8 5 Sudoeste 17 Sudoeste 0 -- -- 93
2018-05-07 02:00:00 8.6 12 Sudoeste 17 Sudoeste 0 -- -- 94
2018-05-07 01:00:00 9.2 11 Sudoeste 14 Sudoeste 0 -- -- 94
2018-05-07 00:00:00 9.6 9 Oeste 12 Sudoeste 0 -- -- 93
2018-05-06 23:00:00 10 6 Sudoeste 10 Sudoeste 0 -- -- 92
2018-05-06 22:00:00 10.6 7 Sudoeste 11 Sudoeste 0 -- -- 90
2018-05-06 21:00:00 12 5 Sudoeste 12 Sudoeste 0 -- -- 88
2018-05-06 20:00:00 13.3 3 Sudeste 18 Sudoeste 0 -- -- 83
2018-05-06 19:00:00 14.9 9 Oeste 25 Oeste 0 -- -- 74
2018-05-06 18:00:00 18.8 11 Noroeste 19 Noroeste 0 -- -- 53
2018-05-06 17:00:00 18.9 10 Oeste 20 Sudoeste 0 -- -- 62
2018-05-06 16:00:00 15.4 13 Oeste 30 Oeste 0.6 -- -- 72
2018-05-06 15:00:00 15.4 19 Oeste 28 Oeste 0 -- -- 70
2018-05-06 14:00:00 17.3 5 Sudoeste 9 Oeste 0.6 -- -- 66
2018-05-06 13:00:00 18.2 5 Noroeste 10 Norte 0 -- -- 52
2018-05-06 12:00:00 19.1 3 Sur 8 Nordeste 0 -- -- 51
2018-05-06 11:00:00 18.2 8 Sudeste 19 Sudeste 0 -- -- 57
2018-05-06 10:00:00 15.5 4 Este 18 Sudoeste 0 -- -- 68
2018-05-06 09:00:00 10.1 7 Sudoeste 21 Sudoeste 0 -- -- 82
2018-05-06 08:00:00 8.3 10 Oeste 18 Oeste 0 -- -- 87
2018-05-06 07:00:00 8 13 Sudoeste 20 Sudoeste 0 -- -- 85
2018-05-06 06:00:00 7.3 16 Sudoeste 22 Sudoeste 0 -- -- 85
2018-05-06 05:00:00 7.6 11 Sudoeste 21 Oeste 0 -- -- 86
2018-05-06 04:00:00 8 10 Oeste 16 Sudoeste 0 -- -- 84
2018-05-06 03:00:00 8.1 10 Oeste 16 Sudoeste 0 -- -- 86
2018-05-06 02:00:00 8.4 11 Sudoeste 14 Sudoeste 0 -- -- 84
2018-05-06 01:00:00 9.5 8 Oeste 11 Oeste 0 -- -- 81
2018-05-06 00:00:00 10.1 5 Sudoeste 8 Oeste 0 -- -- 78
2018-05-05 23:00:00 12.5 2 Sudoeste 7 Norte 0 -- -- 69
2018-05-05 22:00:00 15.1 4 Norte 13 Norte 0 -- -- 60
2018-05-05 21:00:00 16.9 8 Norte 16 Norte 0 -- -- 54
2018-05-05 20:00:00 18.9 8 Norte 17 Norte 0 -- -- 46
2018-05-05 19:00:00 19.4 9 Norte 22 Nordeste 0 -- -- 44
2018-05-05 18:00:00 19.9 8 Norte 22 Norte 0 -- -- 45
2018-05-05 17:00:00 19.6 9 Norte 22 Norte 0 -- -- 44
2018-05-05 16:00:00 19.2 10 Norte 20 Norte 0 -- -- 45
2018-05-05 15:00:00 18.5 9 Norte 22 Norte 0 -- -- 42
2018-05-05 14:00:00 17.8 13 Norte 25 Norte 0 -- -- 45
2018-05-05 13:00:00 17.1 12 Norte 22 Norte 0 -- -- 49
2018-05-05 12:00:00 15.9 12 Norte 22 Norte 0 -- -- 50
2018-05-05 11:00:00 14 3 Nordeste 8 Este 0 -- -- 62
2018-05-05 10:00:00 10.7 3 Este 6 Sudoeste 0 -- -- 70
2018-05-05 09:00:00 6.1 4 Sudoeste 10 Sudoeste 0 -- -- 86
2018-05-05 08:00:00 2.5 2 Oeste 7 Oeste 0 -- -- 91
2018-05-05 07:00:00 2.4 3 Sudoeste 11 Sudoeste 0 -- -- 91
2018-05-05 06:00:00 2.8 8 Sudoeste 12 Sudoeste 0 -- -- 92
2018-05-05 05:00:00 3.2 3 Oeste 9 Oeste 0 -- -- 88
2018-05-05 04:00:00 4 0 Calma 10 Oeste 0 -- -- 87
2018-05-05 03:00:00 4.2 3 Sudoeste 12 Sudoeste 0 -- -- 86
2018-05-05 02:00:00 5.5 0 Calma 10 Sudoeste 0 -- -- 83
2018-05-05 01:00:00 6.3 8 Sudoeste 10 Oeste 0 -- -- 81
2018-05-05 00:00:00 8.8 2 Este 14 Norte 0 -- -- 71
2018-05-04 23:00:00 10.9 8 Norte 21 Noroeste 0 -- -- 63
2018-05-04 22:00:00 11.8 11 Norte 22 Norte 0 -- -- 59
2018-05-04 21:00:00 13.2 11 Norte 25 Norte 0 -- -- 55
2018-05-04 20:00:00 14.9 13 Norte 27 Norte 0 -- -- 48
2018-05-04 19:00:00 15.5 16 Noroeste 30 Norte 0 -- -- 46
2018-05-04 18:00:00 15.8 13 Norte 30 Norte 0 -- -- 46
2018-05-04 17:00:00 15.9 14 Norte 32 Norte 0 -- -- 46
2018-05-04 16:00:00 14.9 14 Norte 26 Noroeste 0 -- -- 50
2018-05-04 15:00:00 13.9 8 Norte 25 Norte 0 -- -- 51
2018-05-04 14:00:00 12.4 10 Norte 24 Noroeste 0 -- -- 54
2018-05-04 13:00:00 10.8 13 Norte 27 Norte 0 -- -- 57
2018-05-04 12:00:00 9.5 12 Norte 24 Norte 0 -- -- 57
2018-05-04 11:00:00 7.9 7 Este 15 Este 0 -- -- 66
2018-05-04 10:00:00 5.5 5 Nordeste 12 Este 0 -- -- 68
2018-05-04 09:00:00 2.9 6 Este 10 Este 0 -- -- 80
2018-05-04 08:00:00 0.4 8 Sudeste 14 Sudeste 0 -- -- 87
2018-05-04 07:00:00 0 3 Sudeste 15 Norte 0 -- -- 85
2018-05-04 06:00:00 0.8 6 Este 13 Norte 0 -- -- 83
2018-05-04 05:00:00 1.8 5 Norte 13 Nordeste 0 -- -- 82
2018-05-04 04:00:00 1.7 0 Calma 9 Oeste 0 -- -- 84
2018-05-04 03:00:00 1.4 3 Sur 11 Norte 0 -- -- 85
2018-05-04 02:00:00 2.7 5 Nordeste 12 Norte 0 -- -- 79
2018-05-04 01:00:00 3.8 5 Oeste 10 Sudoeste 0 -- -- 75
2018-05-04 00:00:00 4.9 0 Calma 6 Sudoeste 0 -- -- 71
2018-05-03 23:00:00 7.2 2 Nordeste 18 Nordeste 0 -- -- 59
2018-05-03 22:00:00 8.6 8 Nordeste 26 Nordeste 0 -- -- 51
2018-05-03 21:00:00 10.2 15 Nordeste 31 Nordeste 0 -- -- 45
2018-05-03 20:00:00 12.1 10 Nordeste 25 Nordeste 0 -- -- 47
2018-05-03 19:00:00 12.1 13 Nordeste 28 Nordeste 0 -- -- 47
2018-05-03 18:00:00 13.2 15 Nordeste 30 Norte 0 -- -- 50
2018-05-03 17:00:00 14.2 13 Nordeste 30 Norte 0 -- -- 47
2018-05-03 16:00:00 12.6 18 Nordeste 34 Norte 0 -- -- 59
2018-05-03 15:00:00 13.2 13 Norte 30 Norte 0 -- -- 58
2018-05-03 14:00:00 14 11 Norte 24 Norte 0 -- -- 60
2018-05-03 13:00:00 12 9 Norte 21 Norte 0 -- -- 68
2018-05-03 12:00:00 11.1 10 Norte 19 Norte 0 -- -- 72
2018-05-03 11:00:00 9.8 8 Norte 14 Norte 0 -- -- 81
2018-05-03 10:00:00 9.3 7 Norte 13 Norte 0 -- -- 84
2018-05-03 09:00:00 8.6 5 Norte 9 Norte 0 -- -- 87
2018-05-03 08:00:00 8.2 6 Norte 12 Norte 0 -- -- 88
2018-05-03 07:00:00 8.4 4 Nordeste 14 Norte 0 -- -- 88
2018-05-03 06:00:00 8.6 5 Norte 13 Norte 0 -- -- 86
2018-05-03 05:00:00 8.8 5 Norte 10 Norte 0 -- -- 85
2018-05-03 04:00:00 9 3 Norte 6 Nordeste 0 -- -- 83
2018-05-03 03:00:00 9.2 4 Este 6 Este 0 -- -- 82
2018-05-03 02:00:00 9.4 3 Nordeste 8 Norte 0 -- -- 80
2018-05-03 01:00:00 9.5 3 Nordeste 12 Norte 0 -- -- 79
2018-05-03 00:00:00 9.4 6 Norte 12 Norte 0 -- -- 78
2018-05-02 23:00:00 10.1 3 Norte 17 Norte 0 -- -- 74
2018-05-02 22:00:00 11.1 6 Norte 16 Norte 0 -- -- 68
2018-05-02 21:00:00 11.6 9 Norte 21 Norte 0 -- -- 63
2018-05-02 20:00:00 12.2 7 Norte 24 Norte 0 -- -- 61
2018-05-02 19:00:00 13 9 Norte 24 Nordeste 0 -- -- 54
2018-05-02 18:00:00 14 11 Norte 23 Norte 0 -- -- 46
2018-05-02 17:00:00 14 13 Norte 24 Norte 0 -- -- 42
2018-05-02 16:00:00 13.9 9 Nordeste 23 Nordeste 0 -- -- 42
2018-05-02 15:00:00 13.1 11 Norte 27 Nordeste 0 -- -- 34
2018-05-02 14:00:00 12.3 7 Norte 24 Norte 0 -- -- 41
2018-05-02 13:00:00 10.7 11 Nordeste 20 Norte 0 -- -- 49
2018-05-02 12:00:00 9.1 8 Norte 22 Norte 0 -- -- 57
2018-05-02 11:00:00 8.3 13 Norte 21 Norte 0 -- -- 57
2018-05-02 10:00:00 6.7 12 Norte 21 Norte 0 -- -- 69
2018-05-02 09:00:00 4.2 0 Calma 10 Sudoeste 0 -- -- 79
2018-05-02 08:00:00 0.4 7 Sudoeste 10 Oeste 0 -- -- 89
2018-05-02 07:00:00 -0.1 4 Oeste 11 Sudoeste 0 -- -- 88
2018-05-02 06:00:00 0.2 7 Sudoeste 12 Sudoeste 0 -- -- 87
2018-05-02 05:00:00 0.3 8 Sudoeste 13 Oeste 0 -- -- 88
2018-05-02 04:00:00 0.6 10 Sudoeste 12 Sudoeste 0 -- -- 85
2018-05-02 03:00:00 1.6 0 Calma 10 Oeste 0 -- -- 80
2018-05-02 02:00:00 2 5 Sur 13 Sudoeste 0 -- -- 79
2018-05-02 01:00:00 2.8 8 Sudoeste 13 Sudoeste 0 -- -- 75
2018-05-02 00:00:00 3.6 6 Sudoeste 10 Sudoeste 0 -- -- 74
2018-05-01 23:00:00 4.7 4 Sudoeste 6 Sudoeste 0 -- -- 70
2018-05-01 22:00:00 7.3 0 Calma 6 Norte 0 -- -- 59
2018-05-01 21:00:00 9.6 3 Norte 13 Noroeste 0 -- -- 44
2018-05-01 20:00:00 11.5 7 Noroeste 15 Noroeste 0 -- -- 40
2018-05-01 19:00:00 12.2 5 Noroeste 21 Noroeste 0 -- -- 37
2018-05-01 18:00:00 12.1 7 Norte 20 Norte 0 -- -- 41
2018-05-01 17:00:00 11.5 10 Nordeste 31 Norte 0 -- -- 43
2018-05-01 16:00:00 11.5 10 Norte 34 Norte 0 -- -- 42
2018-05-01 15:00:00 10.2 13 Nordeste 26 Noroeste 0 -- -- 48
2018-05-01 14:00:00 9.1 12 Norte 23 Nordeste 0 -- -- 48
2018-05-01 13:00:00 8.7 10 Norte 21 Norte 0 -- -- 50
2018-05-01 12:00:00 8 8 Norte 14 Norte 0 -- -- 56
2018-05-01 11:00:00 8 3 Este 6 Este 0 -- -- 70
2018-05-01 10:00:00 6 4 Este 8 Este 0 -- -- 78
2018-05-01 09:00:00 2.9 4 Sudoeste 8 Sudoeste 0 -- -- 97
2018-05-01 08:00:00 1 5 Sudoeste 8 Sudoeste 0 -- -- 96
2018-05-01 07:00:00 1.3 2 Sudeste 8 Este 0 -- -- 95
2018-05-01 06:00:00 1.2 3 Noroeste 7 Sudoeste 0 -- -- 95
2018-05-01 05:00:00 1.8 0 Calma 6 Noroeste 0 -- -- 93
2018-05-01 04:00:00 2.3 6 Sudoeste 10 Oeste 0 -- -- 93
2018-05-01 03:00:00 2.6 0 Calma 7 Sur 0 -- -- 91
2018-05-01 02:00:00 2.9 7 Sudoeste 12 Sur 0 -- -- 91
2018-05-01 01:00:00 3.2 7 Sudoeste 14 Sudoeste 0 -- -- 92
2018-05-01 00:00:00 3.5 5 Oeste 9 Noroeste 0 -- -- 90
2018-04-30 23:00:00 3.8 5 Noroeste 22 Nordeste 2.2 -- -- 85
2018-04-30 22:00:00 5.3 10 Norte 28 Nordeste 0 -- -- 79
2018-04-30 21:00:00 7 4 Oeste 21 Oeste 0 -- -- 63
2018-04-30 20:00:00 7.9 7 Noroeste 22 Norte 0 -- -- 59
2018-04-30 19:00:00 8.6 11 Noroeste 27 Norte 0 -- -- 54
2018-04-30 18:00:00 8.8 14 Noroeste 28 Noroeste 0 -- -- 52
2018-04-30 17:00:00 8.9 12 Norte 25 Noroeste 0 -- -- 51
2018-04-30 16:00:00 8.6 14 Noroeste 28 Noroeste 0 -- -- 54
2018-04-30 15:00:00 7.6 11 Norte 27 Noroeste 0 -- -- 58
2018-04-30 14:00:00 8 10 Oeste 28 Noroeste 0 -- -- 56
2018-04-30 13:00:00 6.9 3 Este 13 Sudoeste 0 -- -- 66
2018-04-30 12:00:00 6.4 4 Nordeste 11 Nordeste 0 -- -- 71
2018-04-30 11:00:00 4.9 3 Noroeste 9 Sur 0 -- -- 74
2018-04-30 10:00:00 2.6 4 Sudeste 6 Sur 0 -- -- 86
2018-04-30 09:00:00 0 2 Este 7 Nordeste 0 -- -- 91
2018-04-30 08:00:00 -0.9 2 Este 8 Noroeste 0 -- -- 93
2018-04-30 07:00:00 -1.6 3 Sudeste 6 Sudoeste 0 -- -- 92
2018-04-30 06:00:00 -1.2 0 Calma 10 Sur 0 -- -- 92
2018-04-30 05:00:00 -0.6 6 Sur 14 Sudoeste 0 -- -- 91
2018-04-30 04:00:00 -0.1 6 Sudoeste 12 Sudoeste 0 -- -- 93
2018-04-30 03:00:00 0.9 8 Sudoeste 17 Sudoeste 0 -- -- 88
2018-04-30 02:00:00 1.5 9 Sudoeste 18 Sudoeste 0 -- -- 88
2018-04-30 01:00:00 1.5 3 Sur 9 Noroeste 0 -- -- 87
2018-04-30 00:00:00 1.9 4 Sudeste 13 Sudeste 0 -- -- 87
2018-04-29 23:00:00 2.4 4 Sudoeste 9 Sudoeste 0 -- -- 87
2018-04-29 22:00:00 3.5 7 Oeste 21 Oeste 0 -- -- 86
2018-04-29 21:00:00 3.5 8 Sudoeste 31 Sudoeste 0 -- -- 83
2018-04-29 20:00:00 4.2 9 Noroeste 36 Oeste 0.4 -- -- 82
2018-04-29 19:00:00 6.1 13 Oeste 33 Sudoeste 0 -- -- 66
2018-04-29 18:00:00 5.4 16 Sudoeste 40 Sudoeste 0 -- -- 82
2018-04-29 17:00:00 7.9 20 Sudoeste 28 Sudoeste 0.2 -- -- 68
2018-04-29 16:00:00 2.6 10 Oeste 25 Sudoeste 1.8 -- -- 88
2018-04-29 15:00:00 2.9 13 Oeste 41 Oeste 1 -- -- 84
2018-04-29 14:00:00 6.9 20 Sudoeste 40 Sudoeste 0 -- -- 77
2018-04-29 13:00:00 6.7 17 Sudoeste 26 Sudoeste 0 -- -- 79
2018-04-29 12:00:00 4.8 15 Sudoeste 26 Sudoeste 0 -- -- 84
2018-04-29 11:00:00 4.8 16 Sudoeste 26 Sudoeste 0 -- -- 81
2018-04-29 10:00:00 4.2 14 Sudoeste 25 Sudoeste 0 -- -- 85
2018-04-29 09:00:00 3.2 10 Oeste 19 Oeste 0 -- -- 88
2018-04-29 08:00:00 2.4 5 Oeste 21 Oeste 0.2 -- -- 90
2018-04-29 07:00:00 2.2 9 Oeste 26 Sudoeste 0 -- -- 91
2018-04-29 06:00:00 2.1 15 Sudoeste 26 Oeste 0 -- -- 91
2018-04-29 05:00:00 2.3 18 Oeste 28 Sudoeste 1.2 -- -- 90
2018-04-29 04:00:00 3.7 16 Oeste 24 Sudoeste 0.4 -- -- 87
2018-04-29 03:00:00 4.3 9 Oeste 20 Oeste 0 -- -- 83
2018-04-29 02:00:00 4.1 10 Oeste 27 Oeste 0 -- -- 84
2018-04-29 01:00:00 4.8 10 Sudoeste 30 Oeste 0 -- -- 85
2018-04-29 00:00:00 5.7 20 Oeste 33 Oeste 0 -- -- 79
2018-04-28 23:00:00 7.1 10 Oeste 20 Oeste 0 -- -- 64
2018-04-28 22:00:00 7.1 4 Sur 21 Sudoeste 0 -- -- 66
2018-04-28 21:00:00 8 15 Sudoeste 31 Sudoeste 0 -- -- 58
2018-04-28 20:00:00 9.4 17 Sudoeste 32 Sudoeste 0 -- -- 53
2018-04-28 19:00:00 10.2 23 Sudoeste 40 Sudoeste 0 -- -- 53
2018-04-28 18:00:00 10.5 17 Sudoeste 31 Oeste 0 -- -- 52
2018-04-28 17:00:00 11.1 24 Sudoeste 39 Sudoeste 0 -- -- 48
2018-04-28 16:00:00 10.6 26 Sudoeste 41 Sudoeste 0 -- -- 48
2018-04-28 15:00:00 11 17 Sudoeste 28 Sudoeste 0 -- -- 56
2018-04-28 14:00:00 10.9 11 Norte 26 Noroeste 0 -- -- 55
2018-04-28 13:00:00 10.3 8 Norte 23 Norte 0 -- -- 59
2018-04-28 12:00:00 9.2 10 Norte 18 Norte 0 -- -- 61
2018-04-28 11:00:00 8.2 10 Nordeste 15 Norte 0 -- -- 62
2018-04-28 10:00:00 7.1 6 Norte 12 Norte 0 -- -- 71
2018-04-28 09:00:00 5.1 6 Norte 13 Norte 0 -- -- 78
2018-04-28 08:00:00 3.8 5 Norte 17 Norte 0 -- -- 88
2018-04-28 07:00:00 4.6 9 Norte 16 Norte 0 -- -- 87
2018-04-28 06:00:00 5.2 4 Norte 10 Norte 0 -- -- 86
2018-04-28 05:00:00 5.9 5 Oeste 19 Oeste 0 -- -- 86
2018-04-28 04:00:00 7.5 8 Sudoeste 26 Sudoeste 0 -- -- 75
2018-04-28 03:00:00 8.4 17 Sudoeste 33 Sudoeste 0 -- -- 79
2018-04-28 02:00:00 8.7 18 Sudoeste 30 Sudoeste 0 -- -- 82
2018-04-28 01:00:00 9.2 4 Sur 26 Oeste 0 -- -- 83
2018-04-28 00:00:00 10.4 13 Oeste 27 Oeste 0 -- -- 78